Time;durP1;ratioP1;P1;durP2;ratioP2;P2;SDS_P1;SDS_P2;PMS_P1;PMS_P2;Temp;Humidity;BMP_temperature;BMP_pressure;BME280_temperature;BME280_humidity;BME280_pressure;Samples;Min_cycle;Max_cycle;Signal;HPM_P1;HPM_P2
2021/12/10 00:02:22;;;;;;;;;;;;;;;9.46;87.99;94185.53;5037406;28;985;-47
2021/12/10 00:04:48;;;;;;;;;;;;;;;9.43;88.06;94185.91;5037026;28;1906;-48
2021/12/10 00:07:17;;;;;;;;;;;;;;;9.38;88.55;94189.06;5037296;28;1029;-48
2021/12/10 00:09:49;;;;;;;;;;;;;;;9.42;88.28;94184.22;5037257;28;978;-48
2021/12/10 00:12:18;;;;;;;;;;;;;;;9.45;88.28;94191.06;5037329;28;1144;-47
2021/12/10 00:14:44;;;;;;;;;;;;;;;9.45;88.01;94191.06;5037184;28;1017;-47
2021/12/10 00:17:12;;;;;;;;;;;;;;;9.44;88.26;94189.38;5036958;28;1029;-48
2021/12/10 00:19:46;;;;;;;;;;;;;;;9.41;88.78;94195.06;5036791;28;1030;-48
2021/12/10 00:22:15;;;;;;;;;;;;;;;9.41;89.11;94193.25;5036775;28;1041;-48
2021/12/10 00:24:42;;;;;;;;;;;;;;;9.39;88.77;94197.94;5035703;28;1906;-48
2021/12/10 00:27:09;;;;;;;;;;;;;;;9.36;89.30;94190.28;5035879;28;979;-48
2021/12/10 00:29:41;;;;;;;;;;;;;;;9.32;89.60;94187.13;5035707;28;1034;-48
2021/12/10 00:32:18;;;;;;;;;;;;;;;9.29;90.28;94179.47;5035400;28;1034;-48
2021/12/10 00:34:49;;;;;;;;;;;;;;;9.30;90.19;94175.81;5035728;28;1017;-48
2021/12/10 00:37:17;;;;;;;;;;;;;;;9.33;90.65;94182.63;5035644;28;1036;-48
2021/12/10 00:39:46;;;;;;;;;;;;;;;9.32;90.33;94187.13;5035302;28;1061;-47
2021/12/10 00:42:14;;;;;;;;;;;;;;;9.36;90.36;94175.09;5035543;28;1017;-47
2021/12/10 00:44:40;;;;;;;;;;;;;;;9.42;89.93;94173.56;5035114;28;1906;-48
2021/12/10 00:47:06;;;;;;;;;;;;;;;9.45;89.52;94178.53;5035516;28;1081;-48
2021/12/10 00:49:33;;;;;;;;;;;;;;;9.50;88.83;94188.66;5035370;28;971;-48
2021/12/10 00:51:59;;;;;;;;;;;;;;;9.47;88.83;94186.38;5035283;28;982;-48
2021/12/10 00:54:25;;;;;;;;;;;;;;;9.30;89.94;94191.81;5034700;28;1014;-48
2021/12/10 00:56:51;;;;;;;;;;;;;;;9.19;90.61;94190.38;5035116;28;986;-48
2021/12/10 00:59:19;;;;;;;;;;;;;;;9.17;90.81;94187.06;5034919;28;1072;-48
2021/12/10 01:01:45;;;;;;;;;;;;;;;9.15;90.71;94189.06;5035257;28;1076;-48
2021/12/10 01:04:27;;;;;;;;;;;;;;;9.18;90.51;94195.88;5035131;28;1119;-48
2021/12/10 01:06:56;;;;;;;;;;;;;;;9.09;90.76;94187.09;5035041;28;1919;-48
2021/12/10 01:09:23;;;;;;;;;;;;;;;9.12;90.41;94177.91;5034594;28;1089;-48
2021/12/10 01:11:55;;;;;;;;;;;;;;;9.13;90.31;94158.25;5035032;28;1037;-48
2021/12/10 01:14:34;;;;;;;;;;;;;;;8.93;90.91;94152.53;5035116;28;982;-48
2021/12/10 01:25:33;;;;;;;;;;;;;;;8.97;91.37;94159.16;4982075;28;1518071;-48
2021/12/10 01:28:00;;;;;;;;;;;;;;;8.93;92.06;94153.34;5035943;28;950;-48
2021/12/10 01:30:30;;;;;;;;;;;;;;;8.93;91.68;94155.19;5035550;28;981;-48
2021/12/10 01:32:58;;;;;;;;;;;;;;;8.81;91.53;94156.63;5035830;28;977;-48
2021/12/10 01:35:30;;;;;;;;;;;;;;;8.79;91.73;94149.59;5050807;28;1029;-48
2021/12/10 01:37:57;;;;;;;;;;;;;;;8.81;91.41;94138.78;5035367;28;1024;-48
2021/12/10 01:40:25;;;;;;;;;;;;;;;8.81;91.70;94125.44;5035532;28;990;-48
2021/12/10 01:42:54;;;;;;;;;;;;;;;8.86;91.21;94130.25;5035615;28;1057;-48
2021/12/10 01:45:26;;;;;;;;;;;;;;;8.88;91.24;94142.41;5035419;28;1988;-48
2021/12/10 01:47:57;;;;;;;;;;;;;;;8.92;91.00;94157.03;5035444;28;1070;-48
2021/12/10 01:50:24;;;;;;;;;;;;;;;8.94;91.38;94159.53;5035448;28;997;-48
2021/12/10 01:52:51;;;;;;;;;;;;;;;8.99;90.76;94146.50;5034911;28;1019;-48
2021/12/10 01:55:20;;;;;;;;;;;;;;;8.95;90.73;94130.03;5035056;28;1072;-48
2021/12/10 01:57:47;;;;;;;;;;;;;;;8.88;91.41;94130.91;5035296;28;1053;-48
2021/12/10 02:00:13;;;;;;;;;;;;;;;8.76;92.02;94134.00;5035287;28;1013;-48
2021/12/10 02:02:41;;;;;;;;;;;;;;;8.76;92.20;94126.00;5035175;28;1021;-48
2021/12/10 02:05:09;;;;;;;;;;;;;;;8.78;92.46;94139.13;5034404;28;1914;-48
2021/12/10 02:07:35;;;;;;;;;;;;;;;8.74;92.91;94138.63;5034272;28;1073;-48
2021/12/10 02:10:02;;;;;;;;;;;;;;;8.71;92.67;94147.00;5034845;28;1109;-48
2021/12/10 02:12:28;;;;;;;;;;;;;;;8.74;91.75;94145.81;5034673;28;1034;-48
2021/12/10 02:15:03;;;;;;;;;;;;;;;8.77;92.17;94148.13;5034645;28;1106;-48
2021/12/10 02:17:31;;;;;;;;;;;;;;;8.86;91.51;94151.56;5034852;28;1049;-48
2021/12/10 02:20:01;;;;;;;;;;;;;;;8.72;92.15;94156.63;5034645;28;1061;-48
2021/12/10 02:22:27;;;;;;;;;;;;;;;8.70;92.19;94157.81;5034461;28;1052;-48
2021/12/10 02:24:53;;;;;;;;;;;;;;;8.77;91.75;94159.63;5034095;28;1918;-48
2021/12/10 02:27:19;;;;;;;;;;;;;;;8.88;91.50;94160.22;5034496;28;1963;-48
2021/12/10 02:29:45;;;;;;;;;;;;;;;8.78;91.24;94161.28;5034608;28;1005;-48
2021/12/10 02:32:11;;;;;;;;;;;;;;;8.74;91.50;94167.94;5034384;28;1038;-48
2021/12/10 02:34:38;;;;;;;;;;;;;;;8.66;91.53;94165.31;5034652;28;986;-48
2021/12/10 02:37:04;;;;;;;;;;;;;;;8.73;91.60;94179.63;5034186;28;1060;-48
2021/12/10 02:39:30;;;;;;;;;;;;;;;8.75;91.47;94172.28;5034234;28;1024;-48
2021/12/10 02:41:57;;;;;;;;;;;;;;;8.62;92.36;94174.69;5034250;28;1038;-48
2021/12/10 02:44:25;;;;;;;;;;;;;;;8.62;92.74;94158.69;5034383;28;969;-48
2021/12/10 02:46:51;;;;;;;;;;;;;;;8.62;92.68;94161.34;5034246;28;1898;-48
2021/12/10 02:49:17;;;;;;;;;;;;;;;8.64;92.42;94163.84;5034088;28;2007;-48
2021/12/10 02:51:44;;;;;;;;;;;;;;;8.59;91.93;94167.03;5034114;28;958;-48
2021/12/10 02:54:12;;;;;;;;;;;;;;;8.48;92.25;94165.59;5034164;28;1029;-48
2021/12/10 02:56:39;;;;;;;;;;;;;;;8.50;92.59;94165.38;5033977;28;1214;-48
2021/12/10 02:59:05;;;;;;;;;;;;;;;8.55;92.43;94158.53;5034284;28;1017;-48
2021/12/10 03:01:37;;;;;;;;;;;;;;;8.49;92.83;94171.72;5033902;28;1033;-48
2021/12/10 03:04:04;;;;;;;;;;;;;;;8.36;94.02;94161.59;5034136;28;994;-48
2021/12/10 03:06:30;;;;;;;;;;;;;;;8.49;93.29;94169.91;5033731;28;1899;-47
2021/12/10 03:08:56;;;;;;;;;;;;;;;8.58;92.24;94157.38;5033962;28;994;-48
2021/12/10 03:11:32;;;;;;;;;;;;;;;8.57;91.55;94153.91;5033819;28;2002;-48
2021/12/10 03:13:58;;;;;;;;;;;;;;;8.42;92.84;94157.44;5034024;28;1072;-48
2021/12/10 03:16:24;;;;;;;;;;;;;;;8.49;92.82;94172.56;5033643;28;1034;-48
2021/12/10 03:18:50;;;;;;;;;;;;;;;8.54;91.88;94166.72;5033532;28;1062;-48
2021/12/10 03:21:16;;;;;;;;;;;;;;;8.55;91.92;94168.38;5033931;28;993;-48
2021/12/10 03:23:44;;;;;;;;;;;;;;;8.56;91.11;94172.72;5033773;28;979;-48
2021/12/10 03:26:11;;;;;;;;;;;;;;;8.53;91.47;94170.38;5033278;28;1985;-48
2021/12/10 03:28:38;;;;;;;;;;;;;;;8.59;91.24;94170.53;5033744;28;1188;-48
2021/12/10 03:31:04;;;;;;;;;;;;;;;8.59;91.15;94167.03;5033674;28;989;-48
2021/12/10 03:33:30;;;;;;;;;;;;;;;8.63;91.06;94167.50;5033435;28;2000;-48
2021/12/10 03:35:56;;;;;;;;;;;;;;;8.63;91.28;94164.84;5033726;28;1041;-47
2021/12/10 03:38:24;;;;;;;;;;;;;;;8.60;91.15;94166.03;5033631;28;1041;-48
2021/12/10 03:40:51;;;;;;;;;;;;;;;8.48;91.19;94170.06;5033858;28;964;-47
2021/12/10 03:43:17;;;;;;;;;;;;;;;8.52;91.07;94169.56;5033512;28;1069;-48
2021/12/10 03:45:46;;;;;;;;;;;;;;;8.55;90.93;94168.38;5033644;28;1906;-48
2021/12/10 03:48:14;;;;;;;;;;;;;;;8.59;90.73;94167.88;5033368;28;1060;-47
2021/12/10 03:50:41;;;;;;;;;;;;;;;8.59;90.56;94172.34;5033632;28;1037;-47
2021/12/10 03:53:07;;;;;;;;;;;;;;;8.62;90.51;94171.19;5033460;28;986;-47
2021/12/10 03:55:33;;;;;;;;;;;;;;;8.65;90.06;94171.69;5033504;28;973;-47
2021/12/10 03:57:59;;;;;;;;;;;;;;;8.57;90.19;94169.88;5033595;28;986;-47
2021/12/10 04:00:28;;;;;;;;;;;;;;;8.52;90.24;94179.38;5033628;28;1049;-47
2021/12/10 04:02:54;;;;;;;;;;;;;;;8.38;91.35;94178.22;5033056;28;930;-47
2021/12/10 04:05:21;;;;;;;;;;;;;;;8.30;92.49;94179.06;5033098;28;1987;-47
2021/12/10 04:07:47;;;;;;;;;;;;;;;8.37;91.80;94172.06;5033399;28;982;-47
2021/12/10 04:10:15;;;;;;;;;;;;;;;8.33;91.64;94168.09;5033177;28;1113;-47
2021/12/10 04:12:41;;;;;;;;;;;;;;;8.38;91.31;94165.75;5033160;28;1117;-47
2021/12/10 04:15:08;;;;;;;;;;;;;;;8.39;91.04;94156.75;5033198;28;993;-47
2021/12/10 04:17:34;;;;;;;;;;;;;;;8.26;91.91;94148.47;5033253;28;994;-47
2021/12/10 04:20:06;;;;;;;;;;;;;;;8.27;92.22;94160.78;5033076;28;1207;-47
2021/12/10 04:22:33;;;;;;;;;;;;;;;8.30;92.09;94147.13;5033269;28;974;-47
2021/12/10 04:24:59;;;;;;;;;;;;;;;8.38;91.28;94136.47;5032660;28;1909;-47
2021/12/10 04:27:26;;;;;;;;;;;;;;;8.29;91.42;94137.50;5033310;28;1033;-47
2021/12/10 04:29:56;;;;;;;;;;;;;;;8.30;91.55;94156.94;5035240;28;1045;-47
2021/12/10 04:32:23;;;;;;;;;;;;;;;8.39;90.56;94174.56;5037007;28;1037;-47
2021/12/10 04:34:49;;;;;;;;;;;;;;;8.28;91.18;94165.09;5036930;28;1053;-47
2021/12/10 04:37:16;;;;;;;;;;;;;;;8.27;91.11;94162.59;5036484;28;1049;-47
2021/12/10 04:39:46;;;;;;;;;;;;;;;8.19;91.00;94163.47;5036663;28;1001;-47
2021/12/10 04:42:13;;;;;;;;;;;;;;;8.21;91.30;94166.78;5036815;28;993;-47
2021/12/10 04:44:39;;;;;;;;;;;;;;;8.26;90.81;94164.44;5036369;28;1914;-47
2021/12/10 04:47:05;;;;;;;;;;;;;;;8.28;90.49;94162.44;5036221;28;1046;-47
2021/12/10 04:49:31;;;;;;;;;;;;;;;8.18;90.58;94167.16;5036636;28;1061;-47
2021/12/10 04:51:58;;;;;;;;;;;;;;;8.15;90.33;94168.28;5051559;28;1066;-47
2021/12/10 04:54:25;;;;;;;;;;;;;;;8.06;90.91;94169.31;5036535;28;1036;-47
2021/12/10 04:56:52;;;;;;;;;;;;;;;8.08;90.71;94171.81;5036715;28;1005;-47
2021/12/10 04:59:20;;;;;;;;;;;;;;;8.17;90.56;94165.47;5036162;28;1061;-47
2021/12/10 05:01:46;;;;;;;;;;;;;;;8.16;90.84;94164.66;5036245;28;1082;-46
2021/12/10 05:04:12;;;;;;;;;;;;;;;8.18;90.94;94156.50;5036417;28;942;-47
2021/12/10 05:06:39;;;;;;;;;;;;;;;8.19;90.74;94159.00;5035830;28;1987;-47
2021/12/10 05:09:07;;;;;;;;;;;;;;;8.14;91.41;94160.50;5036296;28;1006;-47
2021/12/10 05:11:33;;;;;;;;;;;;;;;8.09;91.68;94157.50;5035962;28;1044;-47
2021/12/10 05:13:59;;;;;;;;;;;;;;;8.09;91.82;94152.19;5035853;28;1093;-47
2021/12/10 05:16:26;;;;;;;;;;;;;;;8.15;91.62;94148.84;5035667;28;973;-47
2021/12/10 05:18:58;;;;;;;;;;;;;;;8.23;91.07;94147.97;5035749;28;2160;-47
2021/12/10 05:21:26;;;;;;;;;;;;;;;8.28;90.60;94158.97;5035706;28;1084;-47
2021/12/10 05:23:52;;;;;;;;;;;;;;;8.23;89.98;94183.41;5035821;28;987;-47
2021/12/10 05:26:19;;;;;;;;;;;;;;;8.18;89.38;94183.13;5035299;28;1985;-47
2021/12/10 05:28:45;;;;;;;;;;;;;;;8.11;89.82;94174.13;5035901;28;1125;-47
2021/12/10 05:31:11;;;;;;;;;;;;;;;8.12;89.50;94189.94;5035366;28;1052;-47
2021/12/10 05:33:38;;;;;;;;;;;;;;;8.16;88.50;94193.13;5035831;28;981;-47
2021/12/10 05:36:04;;;;;;;;;;;;;;;8.13;88.99;94196.09;5035585;28;1045;-47
2021/12/10 05:38:31;;;;;;;;;;;;;;;8.09;88.96;94197.44;5035538;28;978;-47
2021/12/10 05:40:58;;;;;;;;;;;;;;;8.02;88.74;94205.25;5034149;28;1056;-47
2021/12/10 05:43:24;;;;;;;;;;;;;;;8.13;88.75;94209.41;5035450;28;985;-47
2021/12/10 05:45:51;;;;;;;;;;;;;;;8.14;88.17;94195.13;5035209;28;1910;-47
2021/12/10 05:48:18;;;;;;;;;;;;;;;8.07;88.68;94188.81;5035572;28;1060;-47
2021/12/10 05:50:45;;;;;;;;;;;;;;;8.01;88.17;94172.50;5035223;28;966;-47
2021/12/10 05:53:11;;;;;;;;;;;;;;;7.87;89.25;94167.84;5035405;28;1148;-47
2021/12/10 05:55:38;;;;;;;;;;;;;;;7.86;89.40;94170.69;5035038;28;1046;-47
2021/12/10 05:58:05;;;;;;;;;;;;;;;8.00;88.65;94167.34;5035207;28;998;-47
2021/12/10 06:00:33;;;;;;;;;;;;;;;8.07;88.38;94149.69;5035372;28;1077;-47
2021/12/10 06:02:59;;;;;;;;;;;;;;;7.92;88.85;94157.53;5035046;28;2016;-47
2021/12/10 06:05:26;;;;;;;;;;;;;;;7.88;89.13;94168.69;5034978;28;1918;-47
2021/12/10 06:07:52;;;;;;;;;;;;;;;7.86;89.13;94174.19;5034876;28;1105;-47
2021/12/10 06:10:19;;;;;;;;;;;;;;;7.81;89.25;94168.53;5035101;28;1356;-47
2021/12/10 06:12:46;;;;;;;;;;;;;;;7.71;89.17;94179.34;5034925;28;1010;-48
2021/12/10 06:15:14;;;;;;;;;;;;;;;7.55;89.84;94190.84;5034956;28;990;-47
2021/12/10 06:17:40;;;;;;;;;;;;;;;7.52;90.43;94204.47;5035025;28;1064;-48
2021/12/10 06:20:07;;;;;;;;;;;;;;;7.61;90.03;94205.31;5034824;28;990;-47
2021/12/10 06:22:33;;;;;;;;;;;;;;;7.66;89.86;94210.13;5034913;28;1111;-47
2021/12/10 06:24:59;;;;;;;;;;;;;;;7.68;89.44;94219.56;5034113;28;1987;-47
2021/12/10 06:27:25;;;;;;;;;;;;;;;7.66;89.43;94210.13;5034622;28;978;-47
2021/12/10 06:29:51;;;;;;;;;;;;;;;7.63;89.50;94220.09;5034400;28;1050;-46
2021/12/10 06:32:17;;;;;;;;;;;;;;;7.69;89.38;94217.78;5034667;28;1034;-47
2021/12/10 06:34:43;;;;;;;;;;;;;;;7.61;89.46;94221.25;5034221;28;1058;-47
2021/12/10 06:37:09;;;;;;;;;;;;;;;7.46;90.01;94221.09;5034586;28;1052;-47
2021/12/10 06:39:35;;;;;;;;;;;;;;;7.58;89.99;94227.72;5034536;28;1080;-47
2021/12/10 06:42:03;;;;;;;;;;;;;;;7.65;89.60;94217.28;5033983;28;1034;-47
2021/12/10 06:44:29;;;;;;;;;;;;;;;7.72;89.19;94210.28;5034153;28;1085;-47
2021/12/10 06:46:55;;;;;;;;;;;;;;;7.91;88.64;94224.22;5034385;28;1902;-47
2021/12/10 06:49:21;;;;;;;;;;;;;;;8.01;88.25;94220.41;5034234;28;978;-47
2021/12/10 06:51:47;;;;;;;;;;;;;;;8.07;87.95;94220.75;5033978;28;1037;-47
2021/12/10 06:54:14;;;;;;;;;;;;;;;7.97;88.28;94223.59;5034007;28;1034;-47
2021/12/10 06:56:40;;;;;;;;;;;;;;;7.95;88.32;94220.25;5034123;28;1009;-47
2021/12/10 06:59:07;;;;;;;;;;;;;;;7.94;88.45;94224.72;5034191;28;1073;-47
2021/12/10 07:01:35;;;;;;;;;;;;;;;7.96;88.66;94222.72;5033873;28;2057;-47
2021/12/10 07:04:04;;;;;;;;;;;;;;;8.12;88.22;94229.03;5033984;28;954;-47
2021/12/10 07:06:30;;;;;;;;;;;;;;;8.15;87.70;94229.53;5033629;28;1910;-47
2021/12/10 07:08:58;;;;;;;;;;;;;;;8.18;88.13;94234.53;5033871;28;1136;-47
2021/12/10 07:11:25;;;;;;;;;;;;;;;8.20;88.09;94223.72;5033907;28;1040;-47
2021/12/10 07:13:54;;;;;;;;;;;;;;;8.11;88.54;94232.72;5033951;28;998;-47
2021/12/10 07:16:21;;;;;;;;;;;;;;;8.11;88.34;94233.53;5033741;28;1110;-47
2021/12/10 07:18:48;;;;;;;;;;;;;;;7.94;88.89;94227.41;5033825;28;985;-47
2021/12/10 07:21:14;;;;;;;;;;;;;;;7.87;89.71;94229.06;5033874;28;1026;-47
2021/12/10 07:23:42;;;;;;;;;;;;;;;7.88;89.31;94216.59;5033621;28;1054;-47
2021/12/10 07:26:09;;;;;;;;;;;;;;;8.06;89.06;94213.75;5033099;28;1967;-47
2021/12/10 07:28:35;;;;;;;;;;;;;;;8.49;87.23;94212.50;5033846;28;1093;-47
2021/12/10 07:31:01;;;;;;;;;;;;;;;8.77;85.42;94225.41;5033695;28;1049;-47
2021/12/10 07:33:28;;;;;;;;;;;;;;;9.11;84.14;94222.44;5033531;28;1050;-47
2021/12/10 07:35:54;;;;;;;;;;;;;;;9.30;83.86;94226.50;5033562;28;1018;-47
2021/12/10 07:38:21;;;;;;;;;;;;;;;9.34;83.53;94229.63;5033754;28;1021;-47
2021/12/10 07:40:47;;;;;;;;;;;;;;;9.38;83.97;94228.28;5033302;28;1054;-48
2021/12/10 07:43:13;;;;;;;;;;;;;;;9.32;84.20;94231.66;5033697;28;990;-48
2021/12/10 07:45:40;;;;;;;;;;;;;;;9.11;85.09;94230.44;5033364;28;1989;-48
2021/12/10 07:48:09;;;;;;;;;;;;;;;9.05;85.61;94222.28;5033413;28;1062;-48
2021/12/10 07:50:38;;;;;;;;;;;;;;;9.08;86.15;94222.75;5033326;28;962;-48
2021/12/10 07:53:04;;;;;;;;;;;;;;;9.07;86.27;94225.59;5033262;28;1049;-48
2021/12/10 07:55:32;;;;;;;;;;;;;;;9.19;85.67;94233.03;5033449;28;1046;-48
2021/12/10 07:57:58;;;;;;;;;;;;;;;9.31;85.02;94243.31;5033299;28;1113;-47
2021/12/10 08:00:26;;;;;;;;;;;;;;;9.35;85.57;94241.97;5033258;28;1038;-47
2021/12/10 08:02:52;;;;;;;;;;;;;;;9.50;84.79;94228.69;5033347;28;1021;-48
2021/12/10 08:05:19;;;;;;;;;;;;;;;9.44;84.84;94219.56;5036330;28;1995;-48
2021/12/10 08:07:45;;;;;;;;;;;;;;;9.41;84.58;94235.09;5037108;28;1028;-47
2021/12/10 08:10:12;;;;;;;;;;;;;;;9.31;84.81;94237.97;5037152;28;970;-48
2021/12/10 08:12:39;;;;;;;;;;;;;;;9.08;85.91;94236.09;5037363;28;1060;-48
2021/12/10 08:15:05;;;;;;;;;;;;;;;9.02;85.90;94234.13;5037184;28;981;-47
2021/12/10 08:17:31;;;;;;;;;;;;;;;9.16;85.56;94227.22;5037112;28;1013;-47
2021/12/10 08:19:58;;;;;;;;;;;;;;;9.28;85.29;94219.69;5036852;28;954;-48
2021/12/10 08:22:25;;;;;;;;;;;;;;;9.30;84.82;94226.50;5036882;28;1095;-48
2021/12/10 08:24:50;;;;;;;;;;;;;;;9.37;83.96;94216.78;5036505;28;1898;-48
2021/12/10 08:27:16;;;;;;;;;;;;;;;9.52;83.76;94227.53;5036722;28;1140;-48
2021/12/10 08:29:44;;;;;;;;;;;;;;;9.78;82.78;94232.50;5036990;28;1036;-48
2021/12/10 08:32:13;;;;;;;;;;;;;;;9.98;82.13;94242.69;5036700;28;1013;-48
2021/12/10 08:34:39;;;;;;;;;;;;;;;10.03;81.94;94250.16;5036690;28;1048;-48
2021/12/10 08:37:06;;;;;;;;;;;;;;;10.05;82.03;94243.63;5036838;28;985;-48
2021/12/10 08:39:32;;;;;;;;;;;;;;;10.11;81.82;94242.91;5036719;28;975;-49
2021/12/10 08:41:58;;;;;;;;;;;;;;;10.12;81.58;94249.09;5036792;28;1008;-48
2021/12/10 08:44:25;;;;;;;;;;;;;;;10.05;81.90;94240.13;5036590;28;982;-48
2021/12/10 08:46:52;;;;;;;;;;;;;;;10.01;82.34;94238.84;5036669;28;1989;-48
2021/12/10 08:49:18;;;;;;;;;;;;;;;9.98;83.10;94232.03;5036605;28;1057;-48
2021/12/10 08:51:47;;;;;;;;;;;;;;;9.92;82.87;94233.56;5051829;28;1069;-48
2021/12/10 08:54:14;;;;;;;;;;;;;;;9.70;83.94;94229.88;5036573;28;1043;-48
2021/12/10 08:56:40;;;;;;;;;;;;;;;9.47;84.99;94221.06;5036568;28;982;-48
2021/12/10 08:59:07;;;;;;;;;;;;;;;9.50;84.88;94218.03;5036329;28;1045;-48
2021/12/10 09:01:35;;;;;;;;;;;;;;;9.32;85.45;94207.66;5036544;28;1085;-48
2021/12/10 09:04:02;;;;;;;;;;;;;;;9.35;85.55;94197.47;5036071;28;1939;-48
2021/12/10 09:06:30;;;;;;;;;;;;;;;10.22;82.01;94180.19;5036057;28;1917;-48
2021/12/10 09:08:56;;;;;;;;;;;;;;;11.47;76.40;94173.16;5036315;28;1050;-47
2021/12/10 09:11:23;;;;;;;;;;;;;;;12.28;73.90;94175.53;5035930;28;1034;-48
2021/12/10 09:13:49;;;;;;;;;;;;;;;13.45;68.66;94172.00;5035957;28;1065;-48
2021/12/10 09:16:21;;;;;;;;;;;;;;;14.92;65.88;94176.56;5035722;28;1029;-47
2021/12/10 09:18:48;;;;;;;;;;;;;;;17.12;58.49;94161.53;5035751;28;987;-48
2021/12/10 09:21:14;;;;;;;;;;;;;;;19.70;49.95;94168.34;5035636;28;970;-48
2021/12/10 09:23:40;;;;;;;;;;;;;;;21.87;43.54;94167.91;5035747;28;1971;-48
2021/12/10 09:26:09;;;;;;;;;;;;;;;23.73;39.80;94168.22;5035262;28;2042;-48
2021/12/10 09:28:36;;;;;;;;;;;;;;;24.82;38.43;94170.94;5035671;28;1108;-48
2021/12/10 09:31:02;;;;;;;;;;;;;;;20.77;44.79;94149.63;5035547;28;1054;-48
2021/12/10 09:33:28;;;;;;;;;;;;;;;15.86;59.35;94150.00;5035768;28;1001;-48
2021/12/10 09:35:55;;;;;;;;;;;;;;;13.26;68.73;94146.75;5035732;28;1061;-47
2021/12/10 09:38:23;;;;;;;;;;;;;;;12.02;74.21;94135.97;5035738;28;1101;-48
2021/12/10 09:40:52;;;;;;;;;;;;;;;11.31;76.99;94136.78;5035446;28;1000;-48
2021/12/10 09:43:19;;;;;;;;;;;;;;;10.79;78.49;94138.66;5035541;28;1120;-48
2021/12/10 09:45:45;;;;;;;;;;;;;;;10.80;78.74;94129.63;5035350;28;1910;-47
2021/12/10 09:48:14;;;;;;;;;;;;;;;11.18;77.14;94125.94;5035189;28;958;-48
2021/12/10 09:50:43;;;;;;;;;;;;;;;11.50;73.13;94120.06;5035273;28;977;-48
2021/12/10 09:53:09;;;;;;;;;;;;;;;12.60;71.87;94109.75;5035206;28;1100;-48
2021/12/10 09:55:35;;;;;;;;;;;;;;;12.86;70.56;94114.41;5035095;28;1050;-48
2021/12/10 09:58:02;;;;;;;;;;;;;;;18.96;52.98;94113.19;5035416;28;1045;-48
2021/12/10 10:00:32;;;;;;;;;;;;;;;22.39;43.70;94110.19;5035022;28;930;-48
2021/12/10 10:02:58;;;;;;;;;;;;;;;24.25;38.83;94095.50;5035094;28;1057;-48
2021/12/10 10:05:27;;;;;;;;;;;;;;;24.23;38.89;94093.03;5035043;28;1910;-48
2021/12/10 10:07:57;;;;;;;;;;;;;;;22.12;42.14;94102.03;5035187;28;1057;-48
2021/12/10 10:10:24;;;;;;;;;;;;;;;18.96;48.91;94102.38;5034876;28;1053;-48
2021/12/10 10:12:51;;;;;;;;;;;;;;;17.47;53.54;94101.47;5034910;28;1017;-48
2021/12/10 10:15:23;;;;;;;;;;;;;;;16.98;53.10;94091.50;5034753;28;1123;-48
2021/12/10 10:17:49;;;;;;;;;;;;;;;15.95;56.52;94090.25;5034965;28;1028;-48
2021/12/10 10:20:16;;;;;;;;;;;;;;;16.53;54.44;94090.94;5034684;28;1109;-48
2021/12/10 10:22:44;;;;;;;;;;;;;;;20.20;45.64;94084.63;5034787;28;978;-48
2021/12/10 10:25:11;;;;;;;;;;;;;;;18.86;46.17;94087.53;5034341;28;1926;-48
2021/12/10 10:27:39;;;;;;;;;;;;;;;18.97;47.68;94079.63;5033937;28;1037;-48
2021/12/10 10:30:05;;;;;;;;;;;;;;;18.43;49.00;94079.78;5034459;28;1104;-48
2021/12/10 10:32:33;;;;;;;;;;;;;;;17.54;50.78;94085.97;5034316;28;1112;-48
2021/12/10 10:35:01;;;;;;;;;;;;;;;19.82;45.39;94083.44;5034535;28;1049;-48
2021/12/10 10:37:28;;;;;;;;;;;;;;;21.41;41.62;94077.63;5034510;28;973;-47
2021/12/10 10:39:55;;;;;;;;;;;;;;;24.41;36.07;94082.66;5034294;28;1057;-48
2021/12/10 10:42:24;;;;;;;;;;;;;;;24.40;35.48;94076.38;5034496;28;986;-48
2021/12/10 10:44:50;;;;;;;;;;;;;;;25.10;32.79;94081.22;5033322;28;982;-48
2021/12/10 10:47:20;;;;;;;;;;;;;;;24.09;32.27;94081.00;5034262;28;1906;-48
2021/12/10 10:49:47;;;;;;;;;;;;;;;21.47;40.67;94079.34;5033997;28;1101;-48
2021/12/10 10:52:22;;;;;;;;;;;;;;;19.01;44.90;94076.22;5034078;28;1065;-48
2021/12/10 10:54:49;;;;;;;;;;;;;;;18.27;48.38;94067.81;5034522;28;1049;-47
2021/12/10 10:57:24;;;;;;;;;;;;;;;17.40;48.66;94054.81;5034303;28;1157;-47
2021/12/10 10:59:54;;;;;;;;;;;;;;;16.50;50.25;94043.63;5034222;28;1165;-47
2021/12/10 11:02:20;;;;;;;;;;;;;;;15.46;53.42;94040.66;5034318;28;1544;-47
2021/12/10 11:04:49;;;;;;;;;;;;;;;14.90;50.96;94034.16;5033862;28;1222;-47
2021/12/10 11:07:19;;;;;;;;;;;;;;;15.16;51.56;94052.03;5033817;28;1906;-47
2021/12/10 11:09:53;;;;;;;;;;;;;;;15.35;54.82;94058.31;5034055;28;969;-47
2021/12/10 11:12:21;;;;;;;;;;;;;;;14.92;51.99;94050.91;5049406;28;1030;-47
2021/12/10 11:14:50;;;;;;;;;;;;;;;14.77;53.86;94045.78;5033918;28;1144;-47
2021/12/10 11:17:16;;;;;;;;;;;;;;;14.87;54.75;94053.41;5033812;28;1153;-47
2021/12/10 11:19:50;;;;;;;;;;;;;;;13.99;52.77;94045.78;5033973;28;974;-47
2021/12/10 11:22:16;;;;;;;;;;;;;;;14.16;55.31;94038.94;5033588;28;1082;-47
2021/12/10 11:28:07;;;;;;;;;;;;;;;15.55;50.28;94036.63;4469867;28;1830;-47
2021/12/10 11:30:33;;;;;;;;;;;;;;;15.03;52.30;94027.88;5013795;28;1117;-47
2021/12/10 11:33:07;;;;;;;;;;;;;;;14.31;52.85;94021.75;5013900;28;1013;-47
2021/12/10 11:35:36;;;;;;;;;;;;;;;13.85;56.96;94028.88;5013929;28;1042;-47
2021/12/10 11:38:08;;;;;;;;;;;;;;;13.35;57.86;94031.16;5014712;28;1075;-47
2021/12/10 11:40:38;;;;;;;;;;;;;;;12.98;58.89;94019.94;5017875;28;1057;-47
2021/12/10 11:43:18;;;;;;;;;;;;;;;12.57;59.49;94016.28;5017925;28;1040;-47
2021/12/10 11:45:52;;;;;;;;;;;;;;;12.53;59.31;94022.28;5033286;28;1914;-47
2021/12/10 11:48:22;;;;;;;;;;;;;;;12.36;60.07;94033.31;5017880;28;1049;-48
2021/12/10 11:50:57;;;;;;;;;;;;;;;12.25;59.40;94034.72;5017737;28;1061;-47
2021/12/10 11:53:23;;;;;;;;;;;;;;;12.30;63.37;94034.13;5018004;28;1072;-47
2021/12/10 11:55:54;;;;;;;;;;;;;;;12.32;62.79;94028.56;5017545;28;1074;-48
2021/12/10 11:58:20;;;;;;;;;;;;;;;12.31;64.41;94035.75;5017764;28;1061;-48
2021/12/10 12:00:46;;;;;;;;;;;;;;;12.39;64.59;94024.06;5017684;28;1079;-47
2021/12/10 12:03:13;;;;;;;;;;;;;;;12.40;63.79;94036.44;5017360;28;1104;-48
2021/12/10 12:05:41;;;;;;;;;;;;;;;12.21;65.88;94033.47;5017334;28;1914;-48
2021/12/10 12:08:09;;;;;;;;;;;;;;;12.00;63.58;94045.09;5017399;28;992;-47
2021/12/10 12:10:40;;;;;;;;;;;;;;;11.99;64.84;94047.97;5017323;28;1121;-48
2021/12/10 12:15:55;;;;;;;;;;;;;;;12.00;62.54;94055.81;5017125;28;1078;-48
2021/12/10 12:18:23;;;;;;;;;;;;;;;11.93;66.83;94049.56;5017222;28;820;-47
2021/12/10 12:20:52;;;;;;;;;;;;;;;11.96;66.66;94043.84;5017087;28;1050;-48
2021/12/10 12:26:10;;;;;;;;;;;;;;;11.80;66.39;94039.59;5034380;28;1985;-47
2021/12/10 12:28:41;;;;;;;;;;;;;;;11.61;66.49;94034.91;5036568;28;1086;-48
2021/12/10 12:31:07;;;;;;;;;;;;;;;11.33;65.92;94035.72;5036797;28;982;-48
2021/12/10 12:33:49;;;;;;;;;;;;;;;11.09;66.30;94037.75;5036969;28;990;-47
2021/12/10 12:36:15;;;;;;;;;;;;;;;10.90;67.38;94033.06;5036897;28;1060;-48
2021/12/10 12:38:46;;;;;;;;;;;;;;;10.84;68.01;94028.47;5036935;28;1033;-48
2021/12/10 12:41:12;;;;;;;;;;;;;;;10.80;70.67;94025.34;5036711;28;974;-47
2021/12/10 12:43:39;;;;;;;;;;;;;;;10.67;71.26;94025.22;5036680;28;1067;-47
2021/12/10 12:46:08;;;;;;;;;;;;;;;10.55;70.90;94023.03;5036494;28;1965;-48
2021/12/10 12:48:37;;;;;;;;;;;;;;;10.73;72.15;94017.25;5036630;28;1052;-48
2021/12/10 12:51:12;;;;;;;;;;;;;;;10.74;71.58;94016.25;5035651;28;1045;-48
2021/12/10 12:53:38;;;;;;;;;;;;;;;10.66;71.31;94012.84;5036337;28;1109;-47
2021/12/10 12:56:10;;;;;;;;;;;;;;;10.70;70.59;94017.66;5036255;28;1070;-48
2021/12/10 12:58:53;;;;;;;;;;;;;;;10.74;70.60;94018.91;5036088;28;1046;-47
2021/12/10 13:01:34;;;;;;;;;;;;;;;10.62;70.11;94011.56;5036354;28;974;-48
2021/12/10 13:04:11;;;;;;;;;;;;;;;10.62;72.44;94028.44;5036474;28;986;-47
2021/12/10 13:06:49;;;;;;;;;;;;;;;10.55;72.77;94016.88;5036009;28;1903;-47
2021/12/10 13:09:18;;;;;;;;;;;;;;;10.46;74.31;94013.47;5036264;28;979;-47
2021/12/10 13:14:46;;;;;;;;;;;;;;;10.43;74.25;94011.16;5035985;28;986;-48
2021/12/10 13:17:14;;;;;;;;;;;;;;;10.57;72.60;94019.31;5036064;28;977;-47
2021/12/10 13:19:40;;;;;;;;;;;;;;;10.63;71.94;94027.44;5036073;28;1060;-48
2021/12/10 13:22:11;;;;;;;;;;;;;;;10.62;70.61;94025.75;5051127;28;1049;-47
2021/12/10 13:24:39;;;;;;;;;;;;;;;10.61;69.79;94025.97;5035784;28;1273;-48
2021/12/10 13:27:05;;;;;;;;;;;;;;;10.59;71.66;94020.81;5035599;28;1906;-47
2021/12/10 13:29:31;;;;;;;;;;;;;;;10.54;70.76;94023.22;5035560;28;1017;-47
2021/12/10 13:31:58;;;;;;;;;;;;;;;10.44;71.50;94018.19;5035466;28;983;-48